Athens, Vermont
Current Conditions -  °F | °C
As of 7:54 AM on Monday 22 Dec 2014 (Local Time) from KVSF Reporting Station
Haze Haze  
Wind Chill: 28°   Ceiling: 1800
Heat Index: 28°   Visibility: 6mi
Dew Point: 27°   Wind: 0mph
Humidity: 96%   Direction: NA
Pressure: 30.37"   Gusts: NA
Location:  43.2811°N, 72.6352°W
Report Text: KVSF 221254Z AUTO 00000KT 6SM BR OVC018 M02/M03 A3037 RMK AO2 SLP295 T10221028 TSNO
Loading
Personal Weather Stations






























Interactive Weather Map New forecast layout! Learn more

10-Day Weather Forecast

Advertisements
Track Severe Weather on mobile